Albuquerque, NM

9:49 AM MDT on March 29, 2017 (GMT -0600)
Old Town | | Change Station

Elev 4950 ft 35.09 °N, 106.67 °W | Updated 12 seconds ago

Overcast
Overcast
54.2 °F
Feels Like 54.2 °F
N
6.0
Wind Variable Wind from North

Today
High -- | Low -- °F
--% Chance of Precip.
Yesterday
High -- | Low -- °F
Precip. -- in
Pressure 29.92 in
Visibility 10.0 miles
Clouds Few 1800 ft
Scattered Clouds 3400 ft
Mostly Cloudy 9000 ft
Overcast 21000 ft
Dew Point 38 °F
Humidity 55%
Rainfall 0.02 in
Snow Depth Not available.
6:57 AM 7:25 PM
Waxing Crescent, 3% visible
METAR KABQ 291452Z 34013KT 10SM FEW018 SCT034 BKN090 OVC210 08/03 A2999 RMK AO2 WSHFT 1415 SLP130 MTN TOP OBSC NE MTNS OBSC SE 60000 T00780033 53021
Pressure 29.92 in
Visibility 10.0 miles
Clouds Few 1800 ft
Scattered Clouds 3400 ft
Mostly Cloudy 9000 ft
Overcast 21000 ft
Dew Point 38 °F
Humidity 55%
Rainfall 0.02 in
Snow Depth Not available.
6:57 AM 7:25 PM
Waxing Crescent, 3% visible
METAR KABQ 291452Z 34013KT 10SM FEW018 SCT034 BKN090 OVC210 08/03 A2999 RMK AO2 WSHFT 1415 SLP130 MTN TOP OBSC NE MTNS OBSC SE 60000 T00780033 53021

Get Severe Weather Alerts

Thanks for signing up!

Be on the lookout for a verification email in your inbox.

You'll start receiving the daily forecast at 8 AM.

×

10-Day Weather Forecast

Almanac

Astronomy

Mar. 29, 2017 Rise Set
Actual Time
Civil Twilight
Nautical Twilight
Astronomical Twilight
Moon
Length of Visible Light
Length of Day
Tomorrow will be .
, % of the Moon is Illuminated

Today's Extremes

State Highs State Lows

Community

WunderPhotos

Upload Photos

1,962,540 photos uploaded!

WunderBlog® & News

Nearby

Air Quality

  Air Quality AQ Index Pollutant
Not available.

Snow Depth

Station Depth Elevation

Earthquake Activity

City Distance Mag. Time & Date
Minimum magnitude displayed is 2.5.

Earthquake Activity

City Distance Mag. Time & Date
Minimum magnitude displayed is 2.5.

Coastal Water Temperatures

Place Temperature

Stations

Nearby Weather Stations

Station Location Temp. Windchill Dew Point Humidity Wind Precip. Elev Updated Type
                   

Watches & Warnings

There are currently no watches in effect.